sensor_id;sensor_type;location;lat;lon;timestamp;P1;durP1;ratioP1;P2;durP2;ratioP2
25247;SDS011;13191;47.472;11.214;2022-09-14T00:02:22;2.47;;;0.55;;
25247;SDS011;13191;47.472;11.214;2022-09-14T00:04:48;2.00;;;0.55;;
25247;SDS011;13191;47.472;11.214;2022-09-14T00:07:15;1.00;;;0.40;;
25247;SDS011;13191;47.472;11.214;2022-09-14T00:09:41;1.17;;;0.60;;
25247;SDS011;13191;47.472;11.214;2022-09-14T00:12:07;0.93;;;0.57;;
25247;SDS011;13191;47.472;11.214;2022-09-14T00:14:34;1.38;;;0.70;;
25247;SDS011;13191;47.472;11.214;2022-09-14T00:17:00;1.40;;;0.60;;
25247;SDS011;13191;47.472;11.214;2022-09-14T00:19:25;3.67;;;0.63;;
25247;SDS011;13191;47.472;11.214;2022-09-14T00:21:52;0.93;;;0.60;;
25247;SDS011;13191;47.472;11.214;2022-09-14T00:24:20;1.75;;;0.90;;
25247;SDS011;13191;47.472;11.214;2022-09-14T00:26:47;3.53;;;0.70;;
25247;SDS011;13191;47.472;11.214;2022-09-14T00:29:13;3.97;;;1.05;;
25247;SDS011;13191;47.472;11.214;2022-09-14T00:31:39;2.30;;;0.80;;
25247;SDS011;13191;47.472;11.214;2022-09-14T00:34:05;1.17;;;0.68;;
25247;SDS011;13191;47.472;11.214;2022-09-14T00:36:36;1.58;;;0.63;;
25247;SDS011;13191;47.472;11.214;2022-09-14T00:39:04;1.23;;;0.50;;
25247;SDS011;13191;47.472;11.214;2022-09-14T00:41:35;1.38;;;0.60;;
25247;SDS011;13191;47.472;11.214;2022-09-14T00:44:54;1.33;;;0.60;;
25247;SDS011;13191;47.472;11.214;2022-09-14T00:46:52;0.93;;;0.60;;
25247;SDS011;13191;47.472;11.214;2022-09-14T00:49:21;1.45;;;0.60;;
25247;SDS011;13191;47.472;11.214;2022-09-14T00:51:53;0.82;;;0.55;;
25247;SDS011;13191;47.472;11.214;2022-09-14T00:54:21;1.27;;;0.47;;
25247;SDS011;13191;47.472;11.214;2022-09-14T00:56:46;1.35;;;0.60;;
25247;SDS011;13191;47.472;11.214;2022-09-14T00:59:15;1.25;;;0.50;;
25247;SDS011;13191;47.472;11.214;2022-09-14T01:01:47;3.85;;;0.60;;
25247;SDS011;13191;47.472;11.214;2022-09-14T01:04:13;1.65;;;0.47;;
25247;SDS011;13191;47.472;11.214;2022-09-14T01:12:34;1.10;;;0.60;;
25247;SDS011;13191;47.472;11.214;2022-09-14T01:15:19;2.22;;;0.90;;
25247;SDS011;13191;47.472;11.214;2022-09-14T01:20:44;0.90;;;0.43;;
25247;SDS011;13191;47.472;11.214;2022-09-14T01:23:21;1.05;;;0.50;;
25247;SDS011;13191;47.472;11.214;2022-09-14T01:31:12;0.43;;;0.40;;
25247;SDS011;13191;47.472;11.214;2022-09-14T01:33:48;1.05;;;0.57;;
25247;SDS011;13191;47.472;11.214;2022-09-14T01:36:19;1.48;;;0.60;;
25247;SDS011;13191;47.472;11.214;2022-09-14T01:38:46;1.05;;;0.47;;
25247;SDS011;13191;47.472;11.214;2022-09-14T01:41:16;0.70;;;0.50;;
25247;SDS011;13191;47.472;11.214;2022-09-14T01:43:55;0.75;;;0.50;;
25247;SDS011;13191;47.472;11.214;2022-09-14T01:46:30;0.80;;;0.43;;
25247;SDS011;13191;47.472;11.214;2022-09-14T01:49:08;2.38;;;0.60;;
25247;SDS011;13191;47.472;11.214;2022-09-14T01:54:29;1.85;;;0.73;;
25247;SDS011;13191;47.472;11.214;2022-09-14T01:57:24;1.48;;;0.40;;
25247;SDS011;13191;47.472;11.214;2022-09-14T01:59:51;0.98;;;0.70;;
25247;SDS011;13191;47.472;11.214;2022-09-14T02:04:51;0.43;;;0.40;;
25247;SDS011;13191;47.472;11.214;2022-09-14T02:07:23;1.17;;;0.60;;
25247;SDS011;13191;47.472;11.214;2022-09-14T02:09:49;1.27;;;0.80;;
25247;SDS011;13191;47.472;11.214;2022-09-14T02:12:17;2.20;;;0.65;;
25247;SDS011;13191;47.472;11.214;2022-09-14T02:14:43;4.22;;;0.52;;
25247;SDS011;13191;47.472;11.214;2022-09-14T02:17:11;4.78;;;0.60;;
25247;SDS011;13191;47.472;11.214;2022-09-14T02:19:42;0.85;;;0.52;;
25247;SDS011;13191;47.472;11.214;2022-09-14T02:22:12;1.40;;;0.70;;
25247;SDS011;13191;47.472;11.214;2022-09-14T02:24:38;3.30;;;0.63;;
25247;SDS011;13191;47.472;11.214;2022-09-14T02:27:05;4.82;;;0.68;;
25247;SDS011;13191;47.472;11.214;2022-09-14T02:29:31;0.80;;;0.47;;
25247;SDS011;13191;47.472;11.214;2022-09-14T02:34:58;0.45;;;0.30;;
25247;SDS011;13191;47.472;11.214;2022-09-14T02:46:35;2.05;;;0.65;;
25247;SDS011;13191;47.472;11.214;2022-09-14T02:51:41;1.15;;;0.68;;
25247;SDS011;13191;47.472;11.214;2022-09-14T02:54:23;3.75;;;0.60;;
25247;SDS011;13191;47.472;11.214;2022-09-14T02:57:00;4.38;;;0.60;;
25247;SDS011;13191;47.472;11.214;2022-09-14T02:59:26;2.03;;;0.63;;
25247;SDS011;13191;47.472;11.214;2022-09-14T03:01:53;1.35;;;0.50;;
25247;SDS011;13191;47.472;11.214;2022-09-14T03:04:19;0.80;;;0.50;;
25247;SDS011;13191;47.472;11.214;2022-09-14T03:06:45;1.13;;;0.50;;
25247;SDS011;13191;47.472;11.214;2022-09-14T03:09:11;1.27;;;0.50;;
25247;SDS011;13191;47.472;11.214;2022-09-14T03:11:36;1.67;;;0.70;;
25247;SDS011;13191;47.472;11.214;2022-09-14T03:14:02;1.88;;;0.80;;
25247;SDS011;13191;47.472;11.214;2022-09-14T03:16:29;0.85;;;0.50;;
25247;SDS011;13191;47.472;11.214;2022-09-14T03:18:55;0.80;;;0.50;;
25247;SDS011;13191;47.472;11.214;2022-09-14T03:21:21;3.97;;;0.75;;
25247;SDS011;13191;47.472;11.214;2022-09-14T03:23:47;5.68;;;0.80;;
25247;SDS011;13191;47.472;11.214;2022-09-14T03:26:17;1.15;;;0.47;;
25247;SDS011;13191;47.472;11.214;2022-09-14T03:28:48;4.75;;;0.57;;
25247;SDS011;13191;47.472;11.214;2022-09-14T03:31:19;0.90;;;0.60;;
25247;SDS011;13191;47.472;11.214;2022-09-14T03:33:45;1.13;;;0.70;;
25247;SDS011;13191;47.472;11.214;2022-09-14T03:36:11;0.95;;;0.60;;
25247;SDS011;13191;47.472;11.214;2022-09-14T03:38:45;1.55;;;0.60;;
25247;SDS011;13191;47.472;11.214;2022-09-14T03:41:12;2.42;;;0.82;;
25247;SDS011;13191;47.472;11.214;2022-09-14T03:43:39;0.65;;;0.50;;
25247;SDS011;13191;47.472;11.214;2022-09-14T03:46:09;2.40;;;0.90;;
25247;SDS011;13191;47.472;11.214;2022-09-14T03:48:37;1.90;;;0.77;;
25247;SDS011;13191;47.472;11.214;2022-09-14T03:51:03;0.57;;;0.43;;
25247;SDS011;13191;47.472;11.214;2022-09-14T03:53:30;1.58;;;0.52;;
25247;SDS011;13191;47.472;11.214;2022-09-14T03:55:56;3.50;;;0.60;;
25247;SDS011;13191;47.472;11.214;2022-09-14T03:58:23;1.42;;;0.60;;
25247;SDS011;13191;47.472;11.214;2022-09-14T04:00:51;2.28;;;0.82;;
25247;SDS011;13191;47.472;11.214;2022-09-14T04:03:17;2.42;;;0.70;;
25247;SDS011;13191;47.472;11.214;2022-09-14T04:05:43;2.10;;;0.50;;
25247;SDS011;13191;47.472;11.214;2022-09-14T04:08:19;7.20;;;0.75;;
25247;SDS011;13191;47.472;11.214;2022-09-14T04:10:45;2.35;;;0.80;;
25247;SDS011;13191;47.472;11.214;2022-09-14T04:13:10;1.95;;;0.60;;
25247;SDS011;13191;47.472;11.214;2022-09-14T04:15:36;1.13;;;0.65;;
25247;SDS011;13191;47.472;11.214;2022-09-14T04:18:02;2.80;;;0.60;;
25247;SDS011;13191;47.472;11.214;2022-09-14T04:20:27;1.38;;;0.60;;
25247;SDS011;13191;47.472;11.214;2022-09-14T04:22:53;1.40;;;0.60;;
25247;SDS011;13191;47.472;11.214;2022-09-14T04:25:18;1.52;;;0.60;;
25247;SDS011;13191;47.472;11.214;2022-09-14T04:27:44;1.40;;;0.70;;
25247;SDS011;13191;47.472;11.214;2022-09-14T04:30:10;2.85;;;0.88;;
25247;SDS011;13191;47.472;11.214;2022-09-14T04:32:36;3.22;;;0.70;;
25247;SDS011;13191;47.472;11.214;2022-09-14T04:35:01;0.73;;;0.45;;
25247;SDS011;13191;47.472;11.214;2022-09-14T04:37:29;2.08;;;0.70;;
25247;SDS011;13191;47.472;11.214;2022-09-14T04:39:55;3.10;;;0.68;;
25247;SDS011;13191;47.472;11.214;2022-09-14T04:42:21;0.82;;;0.45;;
25247;SDS011;13191;47.472;11.214;2022-09-14T04:44:46;4.13;;;0.52;;
25247;SDS011;13191;47.472;11.214;2022-09-14T04:47:12;2.17;;;0.80;;
25247;SDS011;13191;47.472;11.214;2022-09-14T04:49:37;6.25;;;0.77;;
25247;SDS011;13191;47.472;11.214;2022-09-14T04:52:03;2.78;;;0.52;;
25247;SDS011;13191;47.472;11.214;2022-09-14T04:54:29;2.35;;;0.80;;
25247;SDS011;13191;47.472;11.214;2022-09-14T04:56:54;5.25;;;0.82;;
25247;SDS011;13191;47.472;11.214;2022-09-14T04:59:22;6.30;;;0.50;;
25247;SDS011;13191;47.472;11.214;2022-09-14T05:01:47;7.88;;;0.77;;
25247;SDS011;13191;47.472;11.214;2022-09-14T05:04:13;0.75;;;0.55;;
25247;SDS011;13191;47.472;11.214;2022-09-14T05:06:40;5.15;;;0.70;;
25247;SDS011;13191;47.472;11.214;2022-09-14T05:09:09;2.63;;;0.90;;
25247;SDS011;13191;47.472;11.214;2022-09-14T05:11:43;0.80;;;0.50;;
25247;SDS011;13191;47.472;11.214;2022-09-14T05:14:12;0.93;;;0.60;;
25247;SDS011;13191;47.472;11.214;2022-09-14T05:16:39;1.02;;;0.60;;
25247;SDS011;13191;47.472;11.214;2022-09-14T05:19:06;2.55;;;0.82;;
25247;SDS011;13191;47.472;11.214;2022-09-14T05:21:35;1.02;;;0.60;;
25247;SDS011;13191;47.472;11.214;2022-09-14T05:24:06;2.05;;;0.50;;
25247;SDS011;13191;47.472;11.214;2022-09-14T05:26:36;0.80;;;0.60;;
25247;SDS011;13191;47.472;11.214;2022-09-14T05:29:02;0.68;;;0.45;;
25247;SDS011;13191;47.472;11.214;2022-09-14T05:31:29;1.95;;;0.50;;
25247;SDS011;13191;47.472;11.214;2022-09-14T05:33:56;2.00;;;0.60;;
25247;SDS011;13191;47.472;11.214;2022-09-14T05:36:21;2.53;;;1.00;;
25247;SDS011;13191;47.472;11.214;2022-09-14T05:38:47;1.02;;;0.50;;
25247;SDS011;13191;47.472;11.214;2022-09-14T05:41:14;2.97;;;0.50;;
25247;SDS011;13191;47.472;11.214;2022-09-14T05:43:40;1.70;;;0.60;;
25247;SDS011;13191;47.472;11.214;2022-09-14T05:46:08;1.38;;;0.73;;
25247;SDS011;13191;47.472;11.214;2022-09-14T05:48:35;0.80;;;0.50;;
25247;SDS011;13191;47.472;11.214;2022-09-14T05:51:03;8.40;;;1.08;;
25247;SDS011;13191;47.472;11.214;2022-09-14T05:53:31;2.25;;;0.60;;
25247;SDS011;13191;47.472;11.214;2022-09-14T05:56:08;1.77;;;0.70;;
25247;SDS011;13191;47.472;11.214;2022-09-14T05:58:35;1.33;;;0.93;;
25247;SDS011;13191;47.472;11.214;2022-09-14T06:01:16;1.20;;;0.60;;
25247;SDS011;13191;47.472;11.214;2022-09-14T06:03:47;5.18;;;0.90;;
25247;SDS011;13191;47.472;11.214;2022-09-14T06:06:13;3.22;;;1.10;;
25247;SDS011;13191;47.472;11.214;2022-09-14T06:08:41;1.05;;;0.80;;
25247;SDS011;13191;47.472;11.214;2022-09-14T06:11:08;1.20;;;0.52;;
25247;SDS011;13191;47.472;11.214;2022-09-14T06:13:39;0.95;;;0.52;;
25247;SDS011;13191;47.472;11.214;2022-09-14T06:16:06;1.20;;;0.77;;
25247;SDS011;13191;47.472;11.214;2022-09-14T06:18:34;0.70;;;0.47;;
25247;SDS011;13191;47.472;11.214;2022-09-14T06:21:00;1.13;;;0.57;;
25247;SDS011;13191;47.472;11.214;2022-09-14T06:23:28;1.92;;;0.60;;
25247;SDS011;13191;47.472;11.214;2022-09-14T06:25:54;11.55;;;1.10;;
25247;SDS011;13191;47.472;11.214;2022-09-14T06:28:21;1.88;;;0.70;;
25247;SDS011;13191;47.472;11.214;2022-09-14T06:30:47;1.92;;;0.70;;
25247;SDS011;13191;47.472;11.214;2022-09-14T06:33:13;5.07;;;0.75;;
25247;SDS011;13191;47.472;11.214;2022-09-14T06:36:00;5.47;;;0.98;;
25247;SDS011;13191;47.472;11.214;2022-09-14T06:38:26;7.40;;;1.00;;
25247;SDS011;13191;47.472;11.214;2022-09-14T06:40:53;2.28;;;0.85;;
25247;SDS011;13191;47.472;11.214;2022-09-14T06:43:24;6.33;;;1.53;;
25247;SDS011;13191;47.472;11.214;2022-09-14T06:45:58;4.60;;;1.20;;
25247;SDS011;13191;47.472;11.214;2022-09-14T06:48:26;5.43;;;0.90;;
25247;SDS011;13191;47.472;11.214;2022-09-14T06:50:53;2.85;;;1.10;;
25247;SDS011;13191;47.472;11.214;2022-09-14T06:53:19;2.08;;;1.45;;
25247;SDS011;13191;47.472;11.214;2022-09-14T06:55:44;3.25;;;0.90;;
25247;SDS011;13191;47.472;11.214;2022-09-14T06:58:12;1.25;;;0.63;;
25247;SDS011;13191;47.472;11.214;2022-09-14T07:00:38;1.83;;;0.80;;
25247;SDS011;13191;47.472;11.214;2022-09-14T07:03:04;1.35;;;0.68;;
25247;SDS011;13191;47.472;11.214;2022-09-14T07:05:32;1.52;;;0.88;;
25247;SDS011;13191;47.472;11.214;2022-09-14T07:07:57;2.13;;;0.70;;
25247;SDS011;13191;47.472;11.214;2022-09-14T07:10:23;1.30;;;0.82;;
25247;SDS011;13191;47.472;11.214;2022-09-14T07:12:52;4.13;;;1.20;;
25247;SDS011;13191;47.472;11.214;2022-09-14T07:15:24;1.85;;;0.70;;
25247;SDS011;13191;47.472;11.214;2022-09-14T07:17:50;1.25;;;0.75;;
25247;SDS011;13191;47.472;11.214;2022-09-14T07:20:15;3.78;;;0.75;;
25247;SDS011;13191;47.472;11.214;2022-09-14T07:22:44;8.02;;;0.90;;
25247;SDS011;13191;47.472;11.214;2022-09-14T07:25:10;1.85;;;0.80;;
25247;SDS011;13191;47.472;11.214;2022-09-14T07:27:35;2.00;;;0.65;;
25247;SDS011;13191;47.472;11.214;2022-09-14T07:30:05;3.33;;;0.90;;
25247;SDS011;13191;47.472;11.214;2022-09-14T07:32:31;3.33;;;1.08;;
25247;SDS011;13191;47.472;11.214;2022-09-14T07:34:57;5.03;;;0.95;;
25247;SDS011;13191;47.472;11.214;2022-09-14T07:37:22;2.08;;;0.93;;
25247;SDS011;13191;47.472;11.214;2022-09-14T07:39:48;9.63;;;1.50;;
25247;SDS011;13191;47.472;11.214;2022-09-14T07:42:13;6.18;;;0.90;;
25247;SDS011;13191;47.472;11.214;2022-09-14T07:44:39;1.98;;;0.90;;
25247;SDS011;13191;47.472;11.214;2022-09-14T07:47:05;0.90;;;0.60;;
25247;SDS011;13191;47.472;11.214;2022-09-14T07:49:32;2.72;;;0.85;;
25247;SDS011;13191;47.472;11.214;2022-09-14T07:51:58;2.08;;;1.00;;
25247;SDS011;13191;47.472;11.214;2022-09-14T07:54:23;5.07;;;1.00;;
25247;SDS011;13191;47.472;11.214;2022-09-14T07:56:52;2.10;;;0.95;;
25247;SDS011;13191;47.472;11.214;2022-09-14T07:59:18;2.28;;;0.98;;
25247;SDS011;13191;47.472;11.214;2022-09-14T08:01:43;1.30;;;0.70;;
25247;SDS011;13191;47.472;11.214;2022-09-14T08:04:10;2.65;;;0.85;;
25247;SDS011;13191;47.472;11.214;2022-09-14T08:06:36;9.05;;;1.05;;
25247;SDS011;13191;47.472;11.214;2022-09-14T08:09:04;6.10;;;1.23;;
25247;SDS011;13191;47.472;11.214;2022-09-14T08:11:32;1.42;;;0.80;;
25247;SDS011;13191;47.472;11.214;2022-09-14T08:14:02;4.85;;;1.05;;
25247;SDS011;13191;47.472;11.214;2022-09-14T08:16:30;3.90;;;0.90;;
25247;SDS011;13191;47.472;11.214;2022-09-14T08:19:02;2.33;;;0.90;;
25247;SDS011;13191;47.472;11.214;2022-09-14T08:21:31;4.88;;;1.45;;
25247;SDS011;13191;47.472;11.214;2022-09-14T08:23:57;1.98;;;1.30;;
25247;SDS011;13191;47.472;11.214;2022-09-14T08:26:25;1.60;;;0.93;;
25247;SDS011;13191;47.472;11.214;2022-09-14T08:28:54;3.50;;;1.10;;
25247;SDS011;13191;47.472;11.214;2022-09-14T08:31:25;6.28;;;1.20;;
25247;SDS011;13191;47.472;11.214;2022-09-14T08:33:54;8.20;;;1.25;;
25247;SDS011;13191;47.472;11.214;2022-09-14T08:36:25;1.33;;;0.90;;
25247;SDS011;13191;47.472;11.214;2022-09-14T08:38:53;2.78;;;1.08;;
25247;SDS011;13191;47.472;11.214;2022-09-14T08:44:16;1.52;;;0.80;;
25247;SDS011;13191;47.472;11.214;2022-09-14T08:46:47;3.70;;;1.20;;
25247;SDS011;13191;47.472;11.214;2022-09-14T08:49:46;4.50;;;1.63;;
25247;SDS011;13191;47.472;11.214;2022-09-14T08:52:23;3.20;;;1.02;;
25247;SDS011;13191;47.472;11.214;2022-09-14T08:55:00;2.50;;;1.27;;
25247;SDS011;13191;47.472;11.214;2022-09-14T08:57:41;2.45;;;1.20;;
25247;SDS011;13191;47.472;11.214;2022-09-14T09:00:12;2.60;;;1.30;;
25247;SDS011;13191;47.472;11.214;2022-09-14T09:03:00;3.22;;;1.77;;
25247;SDS011;13191;47.472;11.214;2022-09-14T09:05:50;3.83;;;1.25;;
25247;SDS011;13191;47.472;11.214;2022-09-14T09:11:26;8.98;;;1.90;;
25247;SDS011;13191;47.472;11.214;2022-09-14T09:13:59;4.07;;;1.58;;
25247;SDS011;13191;47.472;11.214;2022-09-14T09:16:30;4.75;;;1.40;;
25247;SDS011;13191;47.472;11.214;2022-09-14T09:19:01;8.05;;;2.03;;
25247;SDS011;13191;47.472;11.214;2022-09-14T09:21:35;6.60;;;1.10;;
25247;SDS011;13191;47.472;11.214;2022-09-14T09:26:56;5.93;;;1.20;;
25247;SDS011;13191;47.472;11.214;2022-09-14T09:29:22;2.15;;;1.00;;
25247;SDS011;13191;47.472;11.214;2022-09-14T09:31:49;8.65;;;1.90;;
25247;SDS011;13191;47.472;11.214;2022-09-14T09:34:19;1.98;;;1.00;;
25247;SDS011;13191;47.472;11.214;2022-09-14T09:36:50;2.10;;;0.85;;
25247;SDS011;13191;47.472;11.214;2022-09-14T09:39:15;2.55;;;0.82;;
25247;SDS011;13191;47.472;11.214;2022-09-14T09:44:13;7.50;;;1.40;;
25247;SDS011;13191;47.472;11.214;2022-09-14T09:49:32;9.57;;;1.92;;
25247;SDS011;13191;47.472;11.214;2022-09-14T09:52:13;3.97;;;1.02;;
25247;SDS011;13191;47.472;11.214;2022-09-14T09:54:41;4.18;;;0.93;;
25247;SDS011;13191;47.472;11.214;2022-09-14T09:57:30;5.68;;;1.20;;
25247;SDS011;13191;47.472;11.214;2022-09-14T10:00:17;7.78;;;1.38;;
25247;SDS011;13191;47.472;11.214;2022-09-14T10:02:45;3.17;;;1.30;;
25247;SDS011;13191;47.472;11.214;2022-09-14T10:10:44;4.63;;;1.30;;
25247;SDS011;13191;47.472;11.214;2022-09-14T10:13:32;2.08;;;0.93;;
25247;SDS011;13191;47.472;11.214;2022-09-14T10:16:05;4.47;;;1.50;;
25247;SDS011;13191;47.472;11.214;2022-09-14T10:18:41;2.88;;;0.82;;
25247;SDS011;13191;47.472;11.214;2022-09-14T10:21:13;1.90;;;1.15;;
25247;SDS011;13191;47.472;11.214;2022-09-14T10:23:40;3.08;;;1.00;;
25247;SDS011;13191;47.472;11.214;2022-09-14T10:28:46;3.58;;;1.00;;
25247;SDS011;13191;47.472;11.214;2022-09-14T10:36:33;4.20;;;0.90;;
25247;SDS011;13191;47.472;11.214;2022-09-14T10:39:22;8.45;;;1.40;;
25247;SDS011;13191;47.472;11.214;2022-09-14T10:45:01;3.53;;;0.90;;
25247;SDS011;13191;47.472;11.214;2022-09-14T10:48:05;2.25;;;0.82;;
25247;SDS011;13191;47.472;11.214;2022-09-14T10:56:24;4.63;;;1.00;;
25247;SDS011;13191;47.472;11.214;2022-09-14T11:12:56;4.80;;;1.10;;
25247;SDS011;13191;47.472;11.214;2022-09-14T11:24:12;4.35;;;1.20;;
25247;SDS011;13191;47.472;11.214;2022-09-14T11:26:46;1.55;;;0.65;;
25247;SDS011;13191;47.472;11.214;2022-09-14T11:29:45;6.47;;;0.98;;
25247;SDS011;13191;47.472;11.214;2022-09-14T11:32:39;2.45;;;0.80;;
25247;SDS011;13191;47.472;11.214;2022-09-14T11:38:02;6.88;;;1.00;;
25247;SDS011;13191;47.472;11.214;2022-09-14T11:40:36;4.28;;;1.20;;
25247;SDS011;13191;47.472;11.214;2022-09-14T11:46:13;4.00;;;0.82;;
25247;SDS011;13191;47.472;11.214;2022-09-14T11:48:45;1.85;;;0.63;;
25247;SDS011;13191;47.472;11.214;2022-09-14T11:54:14;1.83;;;1.33;;
25247;SDS011;13191;47.472;11.214;2022-09-14T11:56:44;4.72;;;1.63;;
25247;SDS011;13191;47.472;11.214;2022-09-14T12:10:27;3.63;;;1.15;;
25247;SDS011;13191;47.472;11.214;2022-09-14T12:25:52;5.75;;;1.40;;
25247;SDS011;13191;47.472;11.214;2022-09-14T12:35:59;5.63;;;0.90;;
25247;SDS011;13191;47.472;11.214;2022-09-14T12:43:49;1.35;;;0.75;;
25247;SDS011;13191;47.472;11.214;2022-09-14T12:51:22;1.88;;;1.00;;
25247;SDS011;13191;47.472;11.214;2022-09-14T12:56:30;6.03;;;1.10;;
25247;SDS011;13191;47.472;11.214;2022-09-14T12:59:23;7.82;;;1.25;;
25247;SDS011;13191;47.472;11.214;2022-09-14T13:04:29;2.72;;;0.98;;
25247;SDS011;13191;47.472;11.214;2022-09-14T13:06:58;3.00;;;0.95;;
25247;SDS011;13191;47.472;11.214;2022-09-14T13:09:27;8.07;;;1.23;;
25247;SDS011;13191;47.472;11.214;2022-09-14T13:12:04;2.40;;;1.35;;
25247;SDS011;13191;47.472;11.214;2022-09-14T13:14:55;3.00;;;0.95;;
25247;SDS011;13191;47.472;11.214;2022-09-14T13:17:29;7.13;;;1.52;;
25247;SDS011;13191;47.472;11.214;2022-09-14T13:19:56;11.35;;;1.52;;
25247;SDS011;13191;47.472;11.214;2022-09-14T13:22:24;3.50;;;1.17;;
25247;SDS011;13191;47.472;11.214;2022-09-14T13:24:56;8.98;;;1.20;;
25247;SDS011;13191;47.472;11.214;2022-09-14T13:27:24;3.72;;;1.33;;
25247;SDS011;13191;47.472;11.214;2022-09-14T13:32:43;7.53;;;1.52;;
25247;SDS011;13191;47.472;11.214;2022-09-14T13:35:15;2.55;;;0.90;;
25247;SDS011;13191;47.472;11.214;2022-09-14T13:37:46;7.85;;;1.02;;
25247;SDS011;13191;47.472;11.214;2022-09-14T13:40:13;6.03;;;1.30;;
25247;SDS011;13191;47.472;11.214;2022-09-14T13:42:39;5.15;;;1.20;;
25247;SDS011;13191;47.472;11.214;2022-09-14T13:45:06;8.45;;;1.38;;
25247;SDS011;13191;47.472;11.214;2022-09-14T13:47:33;3.67;;;1.45;;
25247;SDS011;13191;47.472;11.214;2022-09-14T13:49:59;2.55;;;0.85;;
25247;SDS011;13191;47.472;11.214;2022-09-14T13:52:30;8.45;;;1.50;;
25247;SDS011;13191;47.472;11.214;2022-09-14T13:55:13;2.65;;;1.10;;
25247;SDS011;13191;47.472;11.214;2022-09-14T14:00:49;10.88;;;1.00;;
25247;SDS011;13191;47.472;11.214;2022-09-14T14:03:27;6.43;;;1.05;;
25247;SDS011;13191;47.472;11.214;2022-09-14T14:05:55;5.43;;;1.08;;
25247;SDS011;13191;47.472;11.214;2022-09-14T14:08:39;5.00;;;1.17;;
25247;SDS011;13191;47.472;11.214;2022-09-14T14:11:05;6.47;;;1.13;;
25247;SDS011;13191;47.472;11.214;2022-09-14T14:13:33;5.60;;;1.00;;
25247;SDS011;13191;47.472;11.214;2022-09-14T14:18:41;7.10;;;1.20;;
25247;SDS011;13191;47.472;11.214;2022-09-14T14:21:14;2.20;;;1.20;;
25247;SDS011;13191;47.472;11.214;2022-09-14T14:23:40;3.67;;;1.38;;
25247;SDS011;13191;47.472;11.214;2022-09-14T14:26:18;3.83;;;1.15;;
25247;SDS011;13191;47.472;11.214;2022-09-14T14:28:51;3.78;;;1.10;;
25247;SDS011;13191;47.472;11.214;2022-09-14T14:31:18;3.80;;;1.23;;
25247;SDS011;13191;47.472;11.214;2022-09-14T14:33:46;4.65;;;1.58;;
25247;SDS011;13191;47.472;11.214;2022-09-14T14:36:14;2.42;;;1.20;;
25247;SDS011;13191;47.472;11.214;2022-09-14T14:38:40;6.18;;;1.63;;
25247;SDS011;13191;47.472;11.214;2022-09-14T14:41:12;2.70;;;1.20;;
25247;SDS011;13191;47.472;11.214;2022-09-14T14:43:39;5.30;;;1.17;;
25247;SDS011;13191;47.472;11.214;2022-09-14T14:46:06;6.28;;;1.25;;
25247;SDS011;13191;47.472;11.214;2022-09-14T14:48:32;2.40;;;1.20;;
25247;SDS011;13191;47.472;11.214;2022-09-14T14:50:57;8.32;;;1.10;;
25247;SDS011;13191;47.472;11.214;2022-09-14T14:53:23;4.80;;;1.35;;
25247;SDS011;13191;47.472;11.214;2022-09-14T14:55:50;7.05;;;1.27;;
25247;SDS011;13191;47.472;11.214;2022-09-14T14:58:16;5.50;;;1.02;;
25247;SDS011;13191;47.472;11.214;2022-09-14T15:00:43;13.13;;;1.92;;
25247;SDS011;13191;47.472;11.214;2022-09-14T15:03:09;10.65;;;1.73;;
25247;SDS011;13191;47.472;11.214;2022-09-14T15:05:39;2.95;;;1.27;;
25247;SDS011;13191;47.472;11.214;2022-09-14T15:08:06;8.95;;;1.55;;
25247;SDS011;13191;47.472;11.214;2022-09-14T15:10:32;4.05;;;1.27;;
25247;SDS011;13191;47.472;11.214;2022-09-14T15:12:58;3.85;;;1.38;;
25247;SDS011;13191;47.472;11.214;2022-09-14T15:15:24;8.32;;;1.38;;
25247;SDS011;13191;47.472;11.214;2022-09-14T15:17:50;3.30;;;1.25;;
25247;SDS011;13191;47.472;11.214;2022-09-14T15:20:17;2.65;;;1.23;;
25247;SDS011;13191;47.472;11.214;2022-09-14T15:22:43;5.30;;;1.38;;
25247;SDS011;13191;47.472;11.214;2022-09-14T15:25:10;2.42;;;1.10;;
25247;SDS011;13191;47.472;11.214;2022-09-14T15:27:37;3.88;;;1.13;;
25247;SDS011;13191;47.472;11.214;2022-09-14T15:30:03;1.80;;;1.05;;
25247;SDS011;13191;47.472;11.214;2022-09-14T15:32:29;5.43;;;0.98;;
25247;SDS011;13191;47.472;11.214;2022-09-14T15:34:55;2.10;;;1.10;;
25247;SDS011;13191;47.472;11.214;2022-09-14T15:37:21;3.40;;;1.30;;
25247;SDS011;13191;47.472;11.214;2022-09-14T15:39:46;7.25;;;1.58;;
25247;SDS011;13191;47.472;11.214;2022-09-14T15:42:14;4.30;;;1.10;;
25247;SDS011;13191;47.472;11.214;2022-09-14T15:44:41;3.38;;;2.17;;
25247;SDS011;13191;47.472;11.214;2022-09-14T15:47:06;5.80;;;1.48;;
25247;SDS011;13191;47.472;11.214;2022-09-14T15:49:33;6.85;;;1.73;;
25247;SDS011;13191;47.472;11.214;2022-09-14T15:51:59;3.85;;;1.50;;
25247;SDS011;13191;47.472;11.214;2022-09-14T15:54:29;12.80;;;2.03;;
25247;SDS011;13191;47.472;11.214;2022-09-14T15:56:56;11.70;;;2.03;;
25247;SDS011;13191;47.472;11.214;2022-09-14T15:59:24;5.53;;;1.52;;
25247;SDS011;13191;47.472;11.214;2022-09-14T16:01:50;5.10;;;1.27;;
25247;SDS011;13191;47.472;11.214;2022-09-14T16:04:16;6.03;;;1.63;;
25247;SDS011;13191;47.472;11.214;2022-09-14T16:06:42;5.07;;;1.70;;
25247;SDS011;13191;47.472;11.214;2022-09-14T16:09:09;2.72;;;1.70;;
25247;SDS011;13191;47.472;11.214;2022-09-14T16:11:37;4.53;;;1.52;;
25247;SDS011;13191;47.472;11.214;2022-09-14T16:14:04;8.82;;;1.70;;
25247;SDS011;13191;47.472;11.214;2022-09-14T16:16:33;5.95;;;1.48;;
25247;SDS011;13191;47.472;11.214;2022-09-14T16:19:09;7.50;;;1.70;;
25247;SDS011;13191;47.472;11.214;2022-09-14T16:21:36;5.28;;;1.83;;
25247;SDS011;13191;47.472;11.214;2022-09-14T16:24:03;4.57;;;1.40;;
25247;SDS011;13191;47.472;11.214;2022-09-14T16:26:32;6.47;;;1.48;;
25247;SDS011;13191;47.472;11.214;2022-09-14T16:28:59;5.00;;;1.60;;
25247;SDS011;13191;47.472;11.214;2022-09-14T16:31:26;4.38;;;1.92;;
25247;SDS011;13191;47.472;11.214;2022-09-14T16:33:55;9.23;;;1.80;;
25247;SDS011;13191;47.472;11.214;2022-09-14T16:36:26;2.78;;;1.27;;
25247;SDS011;13191;47.472;11.214;2022-09-14T16:38:57;8.25;;;1.63;;
25247;SDS011;13191;47.472;11.214;2022-09-14T16:41:24;4.88;;;1.73;;
25247;SDS011;13191;47.472;11.214;2022-09-14T16:43:58;4.50;;;1.35;;
25247;SDS011;13191;47.472;11.214;2022-09-14T16:46:26;3.17;;;1.30;;
25247;SDS011;13191;47.472;11.214;2022-09-14T16:48:53;5.65;;;1.65;;
25247;SDS011;13191;47.472;11.214;2022-09-14T16:51:21;9.02;;;1.50;;
25247;SDS011;13191;47.472;11.214;2022-09-14T16:53:48;6.55;;;1.60;;
25247;SDS011;13191;47.472;11.214;2022-09-14T16:56:16;7.45;;;1.40;;
25247;SDS011;13191;47.472;11.214;2022-09-14T16:58:46;1.85;;;1.13;;
25247;SDS011;13191;47.472;11.214;2022-09-14T17:01:35;7.72;;;1.48;;
25247;SDS011;13191;47.472;11.214;2022-09-14T17:04:04;2.28;;;0.98;;
25247;SDS011;13191;47.472;11.214;2022-09-14T17:06:35;4.72;;;1.50;;
25247;SDS011;13191;47.472;11.214;2022-09-14T17:09:05;3.20;;;1.20;;
25247;SDS011;13191;47.472;11.214;2022-09-14T17:11:33;5.97;;;1.30;;
25247;SDS011;13191;47.472;11.214;2022-09-14T17:14:01;2.38;;;1.02;;
25247;SDS011;13191;47.472;11.214;2022-09-14T17:16:27;3.25;;;1.25;;
25247;SDS011;13191;47.472;11.214;2022-09-14T17:18:55;4.72;;;1.13;;
25247;SDS011;13191;47.472;11.214;2022-09-14T17:21:24;2.35;;;1.17;;
25247;SDS011;13191;47.472;11.214;2022-09-14T17:23:51;1.88;;;0.90;;
25247;SDS011;13191;47.472;11.214;2022-09-14T17:26:18;4.20;;;1.30;;